createdAt,value
2023-01-30T00:01:03.820Z,21.40
2023-01-30T00:03:31.841Z,24.70
2023-01-30T00:05:59.655Z,19.40
2023-01-30T00:08:27.419Z,18.60
2023-01-30T00:10:55.297Z,20.30
2023-01-30T00:13:23.075Z,24.30
2023-01-30T00:15:50.929Z,23.20
2023-01-30T00:18:18.708Z,23.10
2023-01-30T00:20:46.503Z,21.90
2023-01-30T00:23:14.272Z,20.60
2023-01-30T00:25:46.036Z,21.90
2023-01-30T00:28:14.081Z,20.80
2023-01-30T00:30:42.111Z,21.50
2023-01-30T00:33:10.656Z,19.50
2023-01-30T00:35:45.263Z,20.00
2023-01-30T00:38:14.197Z,20.50
2023-01-30T00:40:43.368Z,20.60
2023-01-30T00:43:32.720Z,19.20
2023-01-30T00:46:20.317Z,20.80
2023-01-30T00:48:48.317Z,21.20
2023-01-30T00:51:16.198Z,20.10
2023-01-30T00:53:43.916Z,20.70
2023-01-30T00:56:11.914Z,17.80
2023-01-30T00:58:39.715Z,19.30
2023-01-30T01:01:07.503Z,17.60
2023-01-30T01:03:35.372Z,16.90
2023-01-30T01:06:03.423Z,17.80
2023-01-30T01:08:31.158Z,17.70
2023-01-30T01:10:58.912Z,18.50
2023-01-30T01:13:26.803Z,17.30
2023-01-30T01:15:54.529Z,20.50
2023-01-30T01:18:22.659Z,17.00
2023-01-30T01:20:50.433Z,16.60
2023-01-30T01:23:18.298Z,20.50
2023-01-30T01:25:46.187Z,19.30
2023-01-30T01:28:13.930Z,15.70
2023-01-30T01:30:41.684Z,17.50
2023-01-30T01:33:09.772Z,17.40
2023-01-30T01:35:41.270Z,17.10
2023-01-30T01:38:09.192Z,17.80
2023-01-30T01:40:55.757Z,15.50
2023-01-30T01:43:25.000Z,17.10
2023-01-30T01:45:55.889Z,20.80
2023-01-30T01:48:38.477Z,15.50
2023-01-30T01:51:10.593Z,18.60
2023-01-30T01:53:44.073Z,16.20
2023-01-30T01:56:13.104Z,18.80
2023-01-30T01:58:51.372Z,18.40
2023-01-30T02:01:19.583Z,16.60
2023-01-30T02:03:53.967Z,19.90
2023-01-30T02:06:22.451Z,17.10
2023-01-30T02:08:56.222Z,21.80
2023-01-30T02:11:32.083Z,21.00
2023-01-30T02:14:00.921Z,19.30
2023-01-30T02:16:28.766Z,18.70
2023-01-30T02:18:56.580Z,17.30
2023-01-30T02:21:46.397Z,23.40
2023-01-30T02:24:32.166Z,22.70
2023-01-30T02:27:02.644Z,20.40
2023-01-30T02:29:46.528Z,21.30
2023-01-30T02:32:19.665Z,24.00
2023-01-30T02:37:47.938Z,17.70
2023-01-30T02:43:16.212Z,17.70
2023-01-30T02:45:50.321Z,17.90
2023-01-30T02:48:24.366Z,20.00
2023-01-30T02:51:30.361Z,19.20
2023-01-30T02:53:59.515Z,16.90
2023-01-30T02:56:27.333Z,17.00
2023-01-30T02:59:00.107Z,19.00
2023-01-30T03:01:46.093Z,18.70
2023-01-30T03:04:51.523Z,17.90
2023-01-30T03:08:10.555Z,19.10
2023-01-30T03:10:44.240Z,17.80
2023-01-30T03:13:21.234Z,19.40
2023-01-30T03:16:06.825Z,19.50
2023-01-30T03:18:34.784Z,16.00
2023-01-30T03:21:06.302Z,15.90
2023-01-30T03:23:34.286Z,15.70
2023-01-30T03:26:05.347Z,19.50
2023-01-30T03:28:33.295Z,17.80
2023-01-30T03:31:01.132Z,16.10
2023-01-30T03:33:29.261Z,16.40
2023-01-30T03:35:57.172Z,16.10
2023-01-30T03:38:24.969Z,16.90
2023-01-30T03:40:52.882Z,17.30
2023-01-30T03:43:20.695Z,15.60
2023-01-30T03:45:48.548Z,15.90
2023-01-30T03:48:16.462Z,14.00
2023-01-30T03:50:44.187Z,18.00
2023-01-30T03:53:12.168Z,15.90
2023-01-30T03:55:40.491Z,15.10
2023-01-30T03:58:08.277Z,16.40
2023-01-30T04:00:36.044Z,16.80
2023-01-30T04:03:03.924Z,15.90
2023-01-30T04:05:31.781Z,16.70
2023-01-30T04:07:59.848Z,17.00
2023-01-30T04:10:28.054Z,17.70
2023-01-30T04:12:55.838Z,13.30
2023-01-30T04:15:23.637Z,15.10
2023-01-30T04:17:51.550Z,16.30
2023-01-30T04:20:20.526Z,14.50
2023-01-30T04:22:48.319Z,15.20
2023-01-30T04:25:16.727Z,14.60
2023-01-30T04:27:44.750Z,15.10
2023-01-30T04:30:12.643Z,15.60
2023-01-30T04:32:40.743Z,16.90
2023-01-30T04:35:08.740Z,18.30
2023-01-30T04:37:36.745Z,16.90
2023-01-30T04:40:05.568Z,16.60
2023-01-30T04:42:33.324Z,16.70
2023-01-30T04:45:01.284Z,16.30
2023-01-30T04:47:29.095Z,17.80
2023-01-30T04:49:56.991Z,17.40
2023-01-30T04:52:24.739Z,17.40
2023-01-30T04:54:52.885Z,17.10
2023-01-30T04:57:20.554Z,16.10
2023-01-30T04:59:48.562Z,16.70
2023-01-30T05:02:16.561Z,16.60
2023-01-30T05:04:44.312Z,15.60
2023-01-30T05:07:12.141Z,14.30
2023-01-30T05:09:40.042Z,17.10
2023-01-30T05:12:07.825Z,16.00
2023-01-30T05:14:35.568Z,14.30
2023-01-30T05:17:03.681Z,15.30
2023-01-30T05:19:31.439Z,16.50
2023-01-30T05:21:59.221Z,16.40
2023-01-30T05:24:27.102Z,13.20
2023-01-30T05:26:54.823Z,14.40
2023-01-30T05:29:22.610Z,14.30
2023-01-30T05:31:51.833Z,18.50
2023-01-30T05:34:19.741Z,19.30
2023-01-30T05:36:47.464Z,17.80
2023-01-30T05:39:16.349Z,15.00
2023-01-30T05:41:44.205Z,17.30
2023-01-30T05:44:12.688Z,14.20
2023-01-30T05:46:40.730Z,15.40
2023-01-30T05:49:08.691Z,15.00
2023-01-30T05:51:36.436Z,18.80
2023-01-30T05:54:04.307Z,18.40
2023-01-30T05:56:33.409Z,16.70
2023-01-30T05:59:01.952Z,14.70
2023-01-30T06:01:30.051Z,19.50
2023-01-30T06:03:58.876Z,17.10
2023-01-30T06:06:27.564Z,19.30
2023-01-30T06:08:56.430Z,16.90
2023-01-30T06:11:25.211Z,18.00
2023-01-30T06:13:53.021Z,17.70
2023-01-30T06:16:21.217Z,16.90
2023-01-30T06:18:49.233Z,15.80
2023-01-30T06:21:17.375Z,15.60
2023-01-30T06:23:46.393Z,17.60
2023-01-30T06:26:14.295Z,17.50
2023-01-30T06:28:42.842Z,20.10
2023-01-30T06:31:10.874Z,19.90
2023-01-30T06:33:38.737Z,18.40
2023-01-30T06:36:08.047Z,13.70
2023-01-30T06:38:35.925Z,14.00
2023-01-30T06:41:03.979Z,14.20
2023-01-30T06:43:31.921Z,14.80
2023-01-30T06:46:00.256Z,13.60
2023-01-30T06:48:28.205Z,14.60
2023-01-30T06:50:56.054Z,17.20
2023-01-30T06:53:30.270Z,14.60
2023-01-30T06:56:01.933Z,15.90
2023-01-30T06:58:29.722Z,18.20
2023-01-30T07:00:57.727Z,16.20
2023-01-30T07:03:25.510Z,18.60
2023-01-30T07:05:53.492Z,14.70
2023-01-30T07:08:23.344Z,20.00
2023-01-30T07:10:52.158Z,21.10
2023-01-30T07:13:20.429Z,17.60
2023-01-30T07:15:48.301Z,18.00
2023-01-30T07:18:16.010Z,17.20
2023-01-30T07:20:47.642Z,18.10
2023-01-30T07:23:16.064Z,18.00
2023-01-30T07:25:43.939Z,17.70
2023-01-30T07:28:11.782Z,18.00
2023-01-30T07:30:39.942Z,16.60
2023-01-30T07:33:07.911Z,18.60
2023-01-30T07:35:36.884Z,15.90
2023-01-30T07:38:05.841Z,19.10
2023-01-30T07:40:33.739Z,17.10
2023-01-30T07:43:04.609Z,23.40
2023-01-30T07:45:46.995Z,24.80
2023-01-30T07:48:17.091Z,19.60
2023-01-30T07:50:45.591Z,19.60
2023-01-30T07:53:18.728Z,17.70
2023-01-30T07:55:46.806Z,19.10
2023-01-30T07:58:15.972Z,18.70
2023-01-30T08:00:44.432Z,18.30
2023-01-30T08:03:16.755Z,17.10
2023-01-30T08:05:47.721Z,18.70
2023-01-30T08:08:15.991Z,17.70
2023-01-30T08:10:44.260Z,21.60
2023-01-30T08:13:12.092Z,21.20
2023-01-30T08:15:40.128Z,18.90
2023-01-30T08:18:07.855Z,19.60
2023-01-30T08:20:36.408Z,17.30
2023-01-30T08:23:04.693Z,18.70
2023-01-30T08:25:32.595Z,20.30
2023-01-30T08:28:00.659Z,19.70
2023-01-30T08:30:30.474Z,17.10
2023-01-30T08:32:58.848Z,18.00
2023-01-30T08:35:27.004Z,18.60
2023-01-30T08:37:54.912Z,17.10
2023-01-30T08:40:22.910Z,15.80
2023-01-30T08:42:50.756Z,18.90
2023-01-30T08:45:18.582Z,20.90
2023-01-30T08:47:46.340Z,18.40
2023-01-30T08:50:14.191Z,17.30
2023-01-30T08:52:42.196Z,15.60
2023-01-30T08:55:09.961Z,14.60
2023-01-30T08:57:37.960Z,16.70
2023-01-30T09:00:06.745Z,19.60
2023-01-30T09:02:35.057Z,16.30
2023-01-30T09:05:04.752Z,16.50
2023-01-30T09:07:32.856Z,16.50
2023-01-30T09:10:00.883Z,22.20
2023-01-30T09:12:28.883Z,20.60
2023-01-30T09:14:58.590Z,17.10
2023-01-30T09:17:26.426Z,15.50
2023-01-30T09:19:54.230Z,16.10
2023-01-30T09:22:22.318Z,16.10
2023-01-30T09:24:50.153Z,13.40
2023-01-30T09:27:18.006Z,17.60
2023-01-30T09:29:46.064Z,14.30
2023-01-30T09:32:13.916Z,12.60
2023-01-30T09:34:41.623Z,16.10
2023-01-30T09:37:09.425Z,14.60
2023-01-30T09:39:37.246Z,13.20
2023-01-30T09:42:05.147Z,15.70
2023-01-30T09:44:42.392Z,15.80
2023-01-30T09:47:14.976Z,14.10
2023-01-30T09:49:58.192Z,14.40
2023-01-30T09:53:05.762Z,13.30
2023-01-30T09:55:37.951Z,12.70
2023-01-30T09:58:06.503Z,15.80
2023-01-30T10:00:38.146Z,16.90
2023-01-30T10:03:09.306Z,15.30
2023-01-30T10:05:46.098Z,13.30
2023-01-30T10:08:51.890Z,11.90
2023-01-30T10:11:45.256Z,12.10
2023-01-30T10:14:54.140Z,12.20
2023-01-30T10:17:42.660Z,13.10
2023-01-30T10:20:33.200Z,15.10
2023-01-30T10:23:26.067Z,11.90
2023-01-30T10:25:56.523Z,13.10
2023-01-30T10:29:07.846Z,11.20
2023-01-30T10:31:49.245Z,12.40
2023-01-30T10:34:29.995Z,14.60
2023-01-30T10:37:09.978Z,12.90
2023-01-30T10:40:03.049Z,13.40
2023-01-30T10:42:38.889Z,13.50
2023-01-30T10:45:13.641Z,11.70
2023-01-30T10:47:58.168Z,12.00
2023-01-30T10:50:45.750Z,14.50
2023-01-30T10:53:22.483Z,12.50
2023-01-30T10:56:04.961Z,9.70
2023-01-30T10:58:39.589Z,11.80
2023-01-30T11:01:14.336Z,14.90
2023-01-30T11:03:46.423Z,12.20
2023-01-30T11:06:16.998Z,11.80
2023-01-30T11:08:45.505Z,9.80
2023-01-30T11:11:36.047Z,9.60
2023-01-30T11:14:08.414Z,8.70
2023-01-30T11:16:53.215Z,10.50
2023-01-30T11:19:27.865Z,11.60
2023-01-30T11:22:00.062Z,11.80
2023-01-30T11:24:33.003Z,9.20
2023-01-30T11:27:10.302Z,12.10
2023-01-30T11:29:40.024Z,9.10
2023-01-30T11:32:26.404Z,9.80
2023-01-30T11:35:06.409Z,10.30
2023-01-30T11:37:39.397Z,9.90
2023-01-30T11:40:29.670Z,9.30
2023-01-30T11:43:05.974Z,14.00
2023-01-30T11:45:36.769Z,9.40
2023-01-30T11:48:23.530Z,8.20
2023-01-30T11:51:04.388Z,10.00
2023-01-30T11:53:42.031Z,10.50
2023-01-30T11:56:14.083Z,10.60
2023-01-30T11:58:46.467Z,11.20
2023-01-30T12:01:15.078Z,12.70
2023-01-30T12:03:48.951Z,11.40
2023-01-30T12:06:25.249Z,9.70
2023-01-30T12:08:57.268Z,7.40
2023-01-30T12:11:28.761Z,6.60
2023-01-30T12:14:35.597Z,6.10
2023-01-30T12:17:12.035Z,6.30
2023-01-30T12:19:56.611Z,6.50
2023-01-30T12:22:33.950Z,6.90
2023-01-30T12:25:10.012Z,8.60
2023-01-30T12:27:52.491Z,6.50
2023-01-30T12:30:28.494Z,6.40
2023-01-30T12:35:41.577Z,7.60
2023-01-30T12:38:12.420Z,9.10
2023-01-30T12:40:47.291Z,8.10
2023-01-30T12:43:33.922Z,5.30
2023-01-30T12:46:13.425Z,6.90
2023-01-30T12:49:11.502Z,5.40
2023-01-30T12:51:50.558Z,7.00
2023-01-30T12:54:43.121Z,9.40
2023-01-30T12:57:20.101Z,6.40
2023-01-30T13:00:09.217Z,7.80
2023-01-30T13:02:47.449Z,6.80
2023-01-30T13:05:32.436Z,5.80
2023-01-30T13:08:09.291Z,6.00
2023-01-30T13:10:48.837Z,7.90
2023-01-30T13:13:43.008Z,9.00
2023-01-30T13:16:44.949Z,7.20
2023-01-30T13:19:40.344Z,6.70
2023-01-30T13:22:34.831Z,6.30
2023-01-30T13:25:13.185Z,8.00
2023-01-30T13:27:44.708Z,6.10
2023-01-30T13:30:18.180Z,6.50
2023-01-30T13:32:56.572Z,6.60
2023-01-30T13:35:51.486Z,4.90
2023-01-30T13:38:27.175Z,6.50
2023-01-30T13:40:57.992Z,7.40
2023-01-30T13:43:36.887Z,7.00
2023-01-30T13:46:09.435Z,4.70
2023-01-30T13:48:48.336Z,7.30
2023-01-30T13:51:32.292Z,5.80
2023-01-30T13:54:26.238Z,6.70
2023-01-30T13:56:59.159Z,7.90
2023-01-30T13:59:36.019Z,8.70
2023-01-30T14:02:05.186Z,6.40
2023-01-30T14:04:44.791Z,7.00
2023-01-30T14:07:13.030Z,11.10
2023-01-30T14:09:44.557Z,9.20
2023-01-30T14:12:26.518Z,5.80
2023-01-30T14:15:12.777Z,7.10
2023-01-30T14:18:00.591Z,4.60
2023-01-30T14:20:33.218Z,7.80
2023-01-30T14:23:26.201Z,7.20
2023-01-30T14:25:57.651Z,7.80
2023-01-30T14:28:25.451Z,6.40
2023-01-30T14:30:56.038Z,5.50
2023-01-30T14:33:23.842Z,9.00
2023-01-30T14:36:01.107Z,4.30
2023-01-30T14:38:30.645Z,7.90
2023-01-30T14:40:58.460Z,6.20
2023-01-30T14:43:42.015Z,5.20
2023-01-30T14:46:29.895Z,4.80
2023-01-30T14:49:25.425Z,4.00
2023-01-30T14:51:56.199Z,5.00
2023-01-30T14:54:41.178Z,5.80
2023-01-30T14:57:18.698Z,6.30
2023-01-30T14:59:59.362Z,7.30
2023-01-30T15:02:44.381Z,6.00
2023-01-30T15:05:19.224Z,8.90
2023-01-30T15:07:53.276Z,6.80
2023-01-30T15:10:41.396Z,5.80
2023-01-30T15:13:46.622Z,5.00
2023-01-30T15:16:36.167Z,6.80
2023-01-30T15:19:23.006Z,5.70
2023-01-30T15:22:21.949Z,6.10
2023-01-30T15:25:19.222Z,7.40
2023-01-30T15:28:28.308Z,7.10
2023-01-30T15:31:18.808Z,7.10
2023-01-30T15:33:52.147Z,6.50
2023-01-30T15:36:32.469Z,6.20
2023-01-30T15:39:27.902Z,6.00
2023-01-30T15:42:04.831Z,5.40
2023-01-30T15:45:02.976Z,7.30
2023-01-30T15:47:33.640Z,6.50
2023-01-30T15:50:09.279Z,4.00
2023-01-30T15:52:48.282Z,4.30
2023-01-30T15:55:30.975Z,4.80
2023-01-30T15:58:05.338Z,6.20
2023-01-30T16:00:36.621Z,3.10
2023-01-30T16:03:06.066Z,5.50
2023-01-30T16:05:33.885Z,5.20
2023-01-30T16:08:10.803Z,3.90
2023-01-30T16:10:46.535Z,4.60
2023-01-30T16:13:14.403Z,5.60
2023-01-30T16:16:04.331Z,3.70
2023-01-30T16:18:51.359Z,5.20
2023-01-30T16:21:24.323Z,4.20
2023-01-30T16:23:59.124Z,4.90
2023-01-30T16:26:27.271Z,7.20
2023-01-30T16:29:23.448Z,9.00
2023-01-30T16:31:53.000Z,6.40
2023-01-30T16:34:33.717Z,4.80
2023-01-30T16:37:16.890Z,5.90
2023-01-30T16:39:48.552Z,4.60
2023-01-30T16:42:26.669Z,4.50
2023-01-30T16:45:12.855Z,5.50
2023-01-30T16:47:40.933Z,5.00
2023-01-30T16:50:19.420Z,3.80
2023-01-30T16:52:52.042Z,4.40
2023-01-30T16:55:25.013Z,7.20
2023-01-30T16:57:58.571Z,4.60
2023-01-30T17:00:32.883Z,7.10
2023-01-30T17:03:03.090Z,5.90
2023-01-30T17:05:39.710Z,5.20
2023-01-30T17:08:46.241Z,9.80
2023-01-30T17:11:37.755Z,5.20
2023-01-30T17:14:13.104Z,6.60
2023-01-30T17:16:43.010Z,6.50
2023-01-30T17:19:10.836Z,6.90
2023-01-30T17:21:59.197Z,5.10
2023-01-30T17:24:27.023Z,8.30
2023-01-30T17:27:00.594Z,7.40
2023-01-30T17:29:42.576Z,3.30
2023-01-30T17:32:13.744Z,8.10
2023-01-30T17:34:41.865Z,8.40
2023-01-30T17:37:20.077Z,7.10
2023-01-30T17:39:48.080Z,3.80
2023-01-30T17:42:22.252Z,8.80
2023-01-30T17:44:50.316Z,5.90
2023-01-30T17:47:18.245Z,7.60
2023-01-30T17:49:46.038Z,5.80
2023-01-30T17:52:14.658Z,4.90
2023-01-30T17:54:42.469Z,4.70
2023-01-30T17:57:11.986Z,4.80
2023-01-30T17:59:39.779Z,4.70
2023-01-30T18:02:10.466Z,6.40
2023-01-30T18:04:40.077Z,3.50
2023-01-30T18:07:13.088Z,8.80
2023-01-30T18:09:42.540Z,4.70
2023-01-30T18:12:10.680Z,6.50
2023-01-30T18:14:38.623Z,6.50
2023-01-30T18:17:06.555Z,6.00
2023-01-30T18:19:34.476Z,6.40
2023-01-30T18:22:02.357Z,5.50
2023-01-30T18:24:30.780Z,5.10
2023-01-30T18:27:01.455Z,6.30
2023-01-30T18:29:29.857Z,4.30
2023-01-30T18:32:03.685Z,5.50
2023-01-30T18:34:33.956Z,6.40
2023-01-30T18:37:01.773Z,5.90
2023-01-30T18:39:29.744Z,7.20
2023-01-30T18:41:57.688Z,5.60
2023-01-30T18:44:25.489Z,4.20
2023-01-30T18:46:53.258Z,5.70
2023-01-30T18:49:21.080Z,6.70
2023-01-30T18:51:49.015Z,6.50
2023-01-30T18:54:17.971Z,5.70
2023-01-30T18:56:45.861Z,5.00
2023-01-30T18:59:13.595Z,7.30
2023-01-30T19:01:44.693Z,6.10
2023-01-30T19:04:12.689Z,6.40
2023-01-30T19:06:43.177Z,8.30
2023-01-30T19:09:22.004Z,5.70
2023-01-30T19:12:09.542Z,8.30
2023-01-30T19:14:37.421Z,7.00
2023-01-30T19:17:05.619Z,8.00
2023-01-30T19:19:33.343Z,4.80
2023-01-30T19:22:01.441Z,7.40
2023-01-30T19:24:29.245Z,5.40
2023-01-30T19:26:57.186Z,5.50
2023-01-30T19:29:24.871Z,6.80
2023-01-30T19:31:53.045Z,8.90
2023-01-30T19:34:21.006Z,8.80
2023-01-30T19:36:48.854Z,5.60
2023-01-30T19:39:16.584Z,8.70
2023-01-30T19:41:44.378Z,8.30
2023-01-30T19:44:12.905Z,10.70
2023-01-30T19:46:40.985Z,9.10
2023-01-30T19:49:10.994Z,8.30
2023-01-30T19:51:38.947Z,11.70
2023-01-30T19:54:09.250Z,6.90
2023-01-30T19:56:39.670Z,10.10
2023-01-30T19:59:07.866Z,7.80
2023-01-30T20:01:39.901Z,13.70
2023-01-30T20:04:08.309Z,9.00
2023-01-30T20:06:37.716Z,5.10
2023-01-30T20:09:07.929Z,8.70
2023-01-30T20:11:37.220Z,7.40
2023-01-30T20:14:07.074Z,7.90
2023-01-30T20:16:35.898Z,7.70
2023-01-30T20:19:10.645Z,5.90
2023-01-30T20:21:38.327Z,8.00
2023-01-30T20:24:07.194Z,8.60
2023-01-30T20:26:36.937Z,8.00
2023-01-30T20:29:06.456Z,11.20
2023-01-30T20:31:35.057Z,5.90
2023-01-30T20:34:06.039Z,6.50
2023-01-30T20:36:34.163Z,4.70
2023-01-30T20:39:04.039Z,6.30
2023-01-30T20:41:33.588Z,5.40
2023-01-30T20:44:01.492Z,7.80
2023-01-30T20:46:43.469Z,6.30
2023-01-30T20:49:14.298Z,6.90
2023-01-30T20:51:42.947Z,10.20
2023-01-30T20:54:13.097Z,7.00
2023-01-30T20:56:46.534Z,6.60
2023-01-30T20:59:17.219Z,4.40
2023-01-30T21:01:46.218Z,7.40
2023-01-30T21:04:16.311Z,7.20
2023-01-30T21:06:46.415Z,8.10
2023-01-30T21:09:20.653Z,8.70
2023-01-30T21:11:49.211Z,8.80
2023-01-30T21:14:17.520Z,5.30
2023-01-30T21:16:46.446Z,7.10
2023-01-30T21:19:16.316Z,6.20
2023-01-30T21:21:54.034Z,9.30
2023-01-30T21:24:24.793Z,7.00
2023-01-30T21:26:52.801Z,7.90
2023-01-30T21:29:23.217Z,10.20
2023-01-30T21:31:52.134Z,4.10
2023-01-30T21:34:20.104Z,4.80
2023-01-30T21:37:07.958Z,4.50
2023-01-30T21:39:54.437Z,4.20
2023-01-30T21:42:40.791Z,8.70
2023-01-30T21:45:09.029Z,6.50
2023-01-30T21:47:36.988Z,7.60
2023-01-30T21:50:05.471Z,8.00
2023-01-30T21:52:33.564Z,5.90
2023-01-30T21:55:01.407Z,8.90
2023-01-30T21:57:29.238Z,7.10
2023-01-30T21:59:56.934Z,5.80
2023-01-30T22:02:24.698Z,9.10
2023-01-30T22:04:52.536Z,10.20
2023-01-30T22:07:20.403Z,4.50
2023-01-30T22:09:48.947Z,7.00
2023-01-30T22:12:16.880Z,5.50
2023-01-30T22:14:51.080Z,8.60
2023-01-30T22:17:19.330Z,9.40
2023-01-30T22:19:47.267Z,5.30
2023-01-30T22:22:15.161Z,6.20
2023-01-30T22:24:42.925Z,4.30
2023-01-30T22:27:10.944Z,11.30
2023-01-30T22:29:38.900Z,6.20
2023-01-30T22:32:06.777Z,5.90
2023-01-30T22:34:36.027Z,11.30
2023-01-30T22:37:04.301Z,6.50
2023-01-30T22:39:32.215Z,7.80
2023-01-30T22:41:59.993Z,9.30
2023-01-30T22:44:28.232Z,6.80
2023-01-30T22:46:56.259Z,5.50
2023-01-30T22:49:24.226Z,4.50
2023-01-30T22:51:51.960Z,7.60
2023-01-30T22:54:19.896Z,7.60
2023-01-30T22:56:49.044Z,6.80
2023-01-30T22:59:19.655Z,6.20
2023-01-30T23:01:50.601Z,6.80
2023-01-30T23:04:20.580Z,10.30
2023-01-30T23:06:50.023Z,6.80
2023-01-30T23:09:20.654Z,9.00
2023-01-30T23:12:12.762Z,9.90
2023-01-30T23:14:42.232Z,8.20
2023-01-30T23:17:28.995Z,9.00
2023-01-30T23:19:57.029Z,10.20
2023-01-30T23:22:25.071Z,10.50
2023-01-30T23:24:52.931Z,11.20
2023-01-30T23:27:21.242Z,10.70
2023-01-30T23:29:49.491Z,9.70
2023-01-30T23:32:20.330Z,16.50
2023-01-30T23:34:53.824Z,13.10
2023-01-30T23:37:42.926Z,13.10
2023-01-30T23:40:11.523Z,11.70
2023-01-30T23:42:39.969Z,9.40
2023-01-30T23:45:08.648Z,8.60
2023-01-30T23:47:36.638Z,13.40
2023-01-30T23:50:04.807Z,16.90
2023-01-30T23:52:32.738Z,12.60
2023-01-30T23:55:00.528Z,9.00
2023-01-30T23:57:28.527Z,11.00
2023-01-30T23:59:56.252Z,7.80
